createdAt,value
2018-12-30T00:00:13.426Z,14.23
2018-12-30T00:03:20.170Z,15.13
2018-12-30T00:09:44.008Z,15.90
2018-12-30T00:12:54.465Z,15.97
2018-12-30T00:15:45.933Z,15.27
2018-12-30T00:18:53.335Z,17.27
2018-12-30T00:24:57.972Z,16.80
2018-12-30T00:28:04.374Z,16.10
2018-12-30T00:30:54.854Z,15.50
2018-12-30T00:34:02.103Z,16.83
2018-12-30T00:40:02.426Z,18.07
2018-12-30T00:43:08.450Z,18.40
2018-12-30T00:46:10.126Z,18.87
2018-12-30T00:49:32.936Z,17.80
2018-12-30T00:52:23.809Z,18.33
2018-12-30T00:58:45.109Z,17.50
2018-12-30T01:01:53.087Z,15.73
2018-12-30T01:04:43.923Z,16.73
2018-12-30T01:08:01.244Z,17.50
2018-12-30T01:14:37.659Z,11.93
2018-12-30T01:27:52.551Z,11.40
2018-12-30T01:30:45.870Z,11.87
2018-12-30T01:53:37.605Z,11.83
2018-12-30T01:57:01.054Z,13.67
2018-12-30T02:00:07.124Z,13.17
2018-12-30T02:03:15.798Z,12.80
2018-12-30T02:06:25.219Z,12.57
2018-12-30T02:12:31.460Z,12.67
2018-12-30T02:15:39.118Z,13.93
2018-12-30T02:21:56.905Z,12.73
2018-12-30T02:24:47.952Z,12.10
2018-12-30T02:31:04.254Z,11.70
2018-12-30T08:36:49.070Z,9.47
2018-12-30T08:39:55.396Z,11.20
2018-12-30T08:42:44.972Z,7.63
2018-12-30T08:49:01.615Z,7.13
2018-12-30T08:52:08.381Z,6.30
2018-12-30T08:54:57.905Z,7.37
2018-12-30T08:58:20.767Z,6.90
2018-12-30T09:01:10.584Z,7.10
2018-12-30T09:07:47.489Z,5.80
2018-12-30T09:10:55.279Z,6.70
2018-12-30T09:14:01.660Z,6.43
2018-12-30T09:17:06.357Z,6.53
2018-12-30T09:19:54.892Z,5.90
2018-12-30T09:22:59.520Z,6.03
2018-12-30T09:25:48.782Z,7.03
2018-12-30T09:28:53.791Z,8.80
2018-12-30T09:31:41.762Z,8.43
2018-12-30T09:34:46.565Z,9.03
2018-12-30T09:37:34.770Z,8.37
2018-12-30T09:40:40.530Z,7.70
2018-12-30T09:43:28.338Z,10.47
2018-12-30T09:46:33.364Z,10.50
2018-12-30T09:49:21.370Z,10.50
2018-12-30T09:52:26.110Z,7.87
2018-12-30T09:55:14.436Z,5.77
2018-12-30T09:58:19.514Z,7.60
2018-12-30T10:01:08.788Z,6.13
2018-12-30T10:04:14.471Z,6.03
2018-12-30T10:07:02.246Z,6.47
2018-12-30T10:10:07.142Z,6.73
2018-12-30T10:12:55.577Z,9.33
2018-12-30T10:16:00.593Z,8.73
2018-12-30T10:18:48.280Z,7.27
2018-12-30T10:21:55.925Z,8.43
2018-12-30T10:24:44.072Z,8.50
2018-12-30T10:27:49.597Z,9.03
2018-12-30T10:30:37.798Z,8.77
2018-12-30T10:33:45.091Z,9.23
2018-12-30T10:36:33.506Z,8.27
2018-12-30T10:39:37.914Z,8.70
2018-12-30T10:42:25.773Z,8.90
2018-12-30T10:45:30.541Z,8.93
2018-12-30T10:51:22.898Z,9.50
2018-12-30T10:54:27.757Z,9.30
2018-12-30T10:57:15.685Z,10.00
2018-12-30T11:00:20.471Z,9.47
2018-12-30T11:03:08.344Z,8.30
2018-12-30T11:06:13.123Z,10.13
2018-12-30T11:09:00.867Z,8.70
2018-12-30T11:12:05.874Z,8.53
2018-12-30T11:14:53.397Z,8.90
2018-12-30T11:17:57.775Z,8.60
2018-12-30T11:20:45.734Z,7.67
2018-12-30T11:23:50.502Z,7.97
2018-12-30T11:26:38.428Z,8.23
2018-12-30T11:29:43.123Z,8.30
2018-12-30T11:32:31.206Z,7.97
2018-12-30T11:35:36.108Z,7.57
2018-12-30T11:38:24.280Z,8.37
2018-12-30T11:41:28.907Z,7.60
2018-12-30T11:44:16.815Z,8.00
2018-12-30T11:47:21.718Z,9.10
2018-12-30T11:50:09.771Z,7.90
2018-12-30T11:53:14.802Z,5.33
2018-12-30T11:56:02.752Z,4.83
2018-12-30T11:59:09.046Z,3.83
2018-12-30T12:01:57.359Z,4.80
2018-12-30T12:05:03.441Z,4.10
2018-12-30T12:07:51.413Z,4.40
2018-12-30T12:10:56.164Z,3.87
2018-12-30T12:13:44.164Z,4.77
2018-12-30T12:16:48.654Z,3.80
2018-12-30T12:19:36.761Z,3.50
2018-12-30T12:22:41.459Z,3.93
2018-12-30T12:25:29.614Z,3.97
2018-12-30T12:28:35.574Z,4.27
2018-12-30T12:31:23.705Z,4.83
2018-12-30T12:34:28.253Z,4.90
2018-12-30T12:40:17.407Z,3.90
2018-12-30T12:43:22.323Z,4.40
2018-12-30T12:46:10.341Z,5.17
2018-12-30T12:49:15.171Z,5.30
2018-12-30T12:52:03.226Z,6.43
2018-12-30T12:55:09.387Z,7.17
2018-12-30T12:57:57.331Z,6.10
2018-12-30T13:01:01.792Z,5.87
2018-12-30T13:03:51.388Z,6.13
2018-12-30T13:06:57.281Z,5.20
2018-12-30T13:09:46.381Z,5.13
2018-12-30T13:12:51.895Z,6.40
2018-12-30T13:15:40.083Z,7.30
2018-12-30T13:18:44.486Z,6.30
2018-12-30T13:21:32.594Z,6.70
2018-12-30T13:24:40.060Z,5.60
2018-12-30T13:27:27.385Z,4.40
2018-12-30T13:30:32.183Z,4.70
2018-12-30T13:33:20.287Z,5.03
2018-12-30T13:36:24.897Z,5.37
2018-12-30T13:39:13.114Z,5.87
2018-12-30T13:42:17.756Z,5.47
2018-12-30T13:45:06.355Z,4.90
2018-12-30T13:48:11.046Z,3.67
2018-12-30T13:50:59.155Z,3.63
2018-12-30T13:54:03.736Z,4.13
2018-12-30T13:56:52.037Z,4.63
2018-12-30T13:59:58.270Z,5.67
2018-12-30T14:02:46.108Z,6.03
2018-12-30T14:05:50.634Z,6.07
2018-12-30T14:08:38.773Z,6.60
2018-12-30T14:11:43.952Z,6.10
2018-12-30T14:14:32.000Z,7.13
2018-12-30T14:17:38.135Z,6.30
2018-12-30T14:20:26.305Z,7.70
2018-12-30T14:23:30.804Z,10.60
2018-12-30T14:26:18.618Z,11.20
2018-12-30T14:29:24.497Z,10.40
2018-12-30T14:32:12.313Z,11.80
2018-12-30T14:35:19.860Z,57.20
2018-12-30T14:38:07.696Z,31.40
2018-12-30T14:41:12.426Z,27.90
2018-12-30T14:44:00.603Z,16.47
2018-12-30T14:47:05.780Z,11.97
2018-12-30T14:49:53.787Z,11.30
2018-12-30T14:52:58.307Z,14.57
2018-12-30T14:55:46.294Z,14.47
2018-12-30T14:58:50.871Z,14.43
2018-12-30T15:01:38.793Z,16.23
2018-12-30T15:04:43.657Z,15.27
2018-12-30T15:07:31.432Z,15.90
2018-12-30T15:10:37.259Z,16.40
2018-12-30T15:13:25.590Z,18.57
2018-12-30T15:16:33.452Z,17.87
2018-12-30T15:19:21.693Z,12.60
2018-12-30T15:22:26.105Z,11.40
2018-12-30T15:25:14.247Z,9.73
2018-12-30T15:28:18.991Z,8.57
2018-12-30T15:31:08.209Z,7.77
2018-12-30T15:34:14.060Z,7.70
2018-12-30T15:37:03.296Z,7.97
2018-12-30T15:40:08.899Z,8.23
2018-12-30T15:42:56.705Z,8.40
2018-12-30T15:46:02.552Z,8.73
2018-12-30T15:51:57.989Z,8.63
2018-12-30T15:55:02.410Z,9.27
2018-12-30T15:57:50.338Z,9.13
2018-12-30T16:00:54.906Z,9.57
2018-12-30T16:03:42.739Z,11.13
2018-12-30T16:06:47.199Z,18.47
2018-12-30T16:09:35.148Z,15.30
2018-12-30T16:12:40.070Z,15.60
2018-12-30T16:15:28.007Z,13.63
2018-12-30T16:18:32.455Z,12.60
2018-12-30T16:21:20.538Z,11.80
2018-12-30T16:24:25.663Z,13.53
2018-12-30T16:27:13.838Z,15.40
2018-12-30T16:33:33.067Z,13.50
2018-12-30T16:36:37.398Z,13.63
2018-12-30T16:39:25.265Z,14.33
2018-12-30T16:42:30.421Z,13.40
2018-12-30T16:45:35.003Z,14.90
2018-12-30T16:48:24.383Z,15.47
2018-12-30T16:51:30.619Z,16.60
2018-12-30T16:54:22.894Z,15.33
2018-12-30T16:57:27.598Z,15.57
2018-12-30T17:00:16.857Z,17.60
2018-12-30T17:03:22.691Z,16.97
2018-12-30T17:06:10.886Z,19.27
2018-12-30T17:09:15.676Z,21.27
2018-12-30T17:12:09.623Z,23.10
2018-12-30T17:15:17.642Z,23.80
2018-12-30T17:18:22.098Z,26.77
2018-12-30T17:21:10.299Z,26.13
2018-12-30T17:24:15.208Z,22.57
2018-12-30T17:27:03.362Z,21.17
2018-12-30T17:30:08.202Z,21.80
2018-12-30T17:32:56.359Z,21.10
2018-12-30T17:36:01.110Z,30.93
2018-12-30T17:38:49.263Z,27.43
2018-12-30T17:41:54.019Z,27.27
2018-12-30T17:44:41.911Z,24.80
2018-12-30T17:47:46.353Z,21.47
2018-12-30T17:50:34.288Z,22.10
2018-12-30T17:53:39.896Z,20.50
2018-12-30T17:56:29.293Z,18.90
2018-12-30T17:59:36.795Z,19.03
2018-12-30T18:05:29.580Z,21.53
2018-12-30T18:08:35.553Z,18.93
2018-12-30T18:11:23.572Z,19.20
2018-12-30T18:14:30.838Z,20.77
2018-12-30T18:17:18.989Z,15.73
2018-12-30T18:20:25.076Z,12.40
2018-12-30T18:23:14.263Z,12.87
2018-12-30T18:26:20.312Z,13.27
2018-12-30T18:29:34.143Z,13.70
2018-12-30T18:32:23.655Z,13.40
2018-12-30T18:35:31.339Z,14.90
2018-12-30T18:38:19.535Z,14.33
2018-12-30T18:41:24.666Z,14.43
2018-12-30T18:44:12.504Z,14.60
2018-12-30T18:47:17.205Z,14.27
2018-12-30T18:50:05.533Z,12.77
2018-12-30T18:53:10.299Z,13.13
2018-12-30T18:56:15.325Z,11.03
2018-12-30T18:59:03.315Z,12.00
2018-12-30T19:02:07.751Z,13.03
2018-12-30T19:04:56.793Z,14.27
2018-12-30T19:08:01.571Z,13.80
2018-12-30T19:10:50.842Z,13.43
2018-12-30T19:13:55.651Z,14.00
2018-12-30T19:16:44.495Z,14.23
2018-12-30T19:19:50.464Z,14.03
2018-12-30T19:22:41.259Z,15.23
2018-12-30T19:25:46.014Z,15.37
2018-12-30T19:28:34.171Z,16.20
2018-12-30T19:31:42.530Z,15.83
2018-12-30T19:34:30.625Z,15.23
2018-12-30T19:37:35.066Z,15.40
2018-12-30T19:40:23.302Z,16.00
2018-12-30T19:43:31.161Z,17.17
2018-12-30T19:46:19.232Z,16.97
2018-12-30T19:49:25.255Z,17.33
2018-12-30T19:52:13.382Z,18.57
2018-12-30T19:55:17.962Z,17.07
2018-12-30T19:58:10.362Z,21.53
2018-12-30T20:01:14.982Z,29.70
2018-12-30T20:04:02.883Z,29.87
2018-12-30T20:07:08.897Z,37.37
2018-12-30T20:09:57.327Z,29.63
2018-12-30T20:13:08.748Z,29.93
2018-12-30T20:15:52.198Z,29.57
2018-12-30T20:18:56.927Z,24.33
2018-12-30T20:21:44.813Z,21.10
2018-12-30T20:24:50.899Z,20.00
2018-12-30T20:27:39.017Z,20.87
2018-12-30T20:33:46.377Z,21.73
2018-12-30T20:37:05.679Z,23.30
2018-12-30T20:39:53.817Z,21.10
2018-12-30T20:42:58.709Z,20.87
2018-12-30T20:45:47.094Z,20.97
2018-12-30T20:48:52.854Z,21.73
2018-12-30T20:51:42.140Z,24.13
2018-12-30T20:54:46.805Z,25.57
2018-12-30T20:57:34.621Z,24.53
2018-12-30T21:00:42.288Z,23.63
2018-12-30T21:03:30.561Z,25.07
2018-12-30T21:06:35.140Z,25.37
2018-12-30T21:09:23.091Z,24.60
2018-12-30T21:12:28.020Z,19.67
2018-12-30T21:15:15.888Z,21.37
2018-12-30T21:18:22.337Z,22.40
2018-12-30T21:21:10.257Z,20.33
2018-12-30T21:24:14.622Z,19.00
2018-12-30T21:27:04.051Z,17.60
2018-12-30T21:30:08.504Z,18.83
2018-12-30T21:32:56.553Z,18.27
2018-12-30T21:36:02.617Z,17.93
2018-12-30T21:38:53.615Z,18.70
2018-12-30T21:44:59.259Z,19.17
2018-12-30T21:47:30.561Z,19.13
2018-12-30T21:49:59.043Z,17.73
2018-12-30T21:52:27.658Z,18.37
2018-12-30T21:54:56.308Z,18.77
2018-12-30T21:57:24.979Z,16.37
2018-12-30T21:59:53.613Z,17.33
2018-12-30T22:02:22.298Z,15.63
2018-12-30T22:04:53.822Z,15.40
2018-12-30T22:07:22.451Z,16.63
2018-12-30T22:09:51.069Z,17.23
2018-12-30T22:12:19.710Z,19.43
2018-12-30T22:14:48.304Z,18.60
2018-12-30T22:17:19.947Z,16.63
2018-12-30T22:19:48.552Z,19.07
2018-12-30T22:22:17.113Z,18.70
2018-12-30T22:24:45.683Z,17.83
2018-12-30T22:27:14.371Z,18.00
2018-12-30T22:29:45.736Z,17.73
2018-12-30T22:32:14.276Z,18.47
2018-12-30T22:34:45.909Z,18.40
2018-12-30T22:37:14.505Z,18.87
2018-12-30T22:39:43.125Z,17.80
2018-12-30T22:42:15.578Z,17.53
2018-12-30T22:44:44.142Z,17.40
2018-12-30T22:47:12.707Z,19.03
2018-12-30T22:49:41.374Z,18.83
2018-12-30T22:52:09.924Z,19.47
2018-12-30T22:54:38.493Z,18.87
2018-12-30T22:57:07.112Z,19.50
2018-12-30T22:59:35.615Z,18.40
2018-12-30T23:02:04.245Z,19.50
2018-12-30T23:04:32.847Z,19.83
2018-12-30T23:07:01.523Z,19.60
2018-12-30T23:09:30.019Z,21.17
2018-12-30T23:11:58.572Z,22.80
2018-12-30T23:14:27.189Z,24.30
2018-12-30T23:16:55.821Z,22.73
2018-12-30T23:19:24.427Z,22.40
2018-12-30T23:21:52.916Z,23.40
2018-12-30T23:24:21.599Z,24.70
2018-12-30T23:26:50.277Z,23.60
2018-12-30T23:29:18.893Z,25.23
2018-12-30T23:31:47.514Z,26.97
2018-12-30T23:34:16.120Z,24.23
2018-12-30T23:36:44.686Z,25.20
2018-12-30T23:39:13.250Z,24.73
2018-12-30T23:41:41.837Z,24.93
2018-12-30T23:44:10.514Z,25.57
2018-12-30T23:46:39.053Z,26.63
2018-12-30T23:49:07.597Z,26.47
2018-12-30T23:51:36.276Z,24.83
2018-12-30T23:54:04.819Z,26.57
2018-12-30T23:56:33.296Z,27.53
2018-12-30T23:59:02.077Z,28.03
